createdAt,value
2018-09-05T00:01:06.128Z,5.13
2018-09-05T00:03:30.001Z,5.20
2018-09-05T00:05:53.833Z,5.13
2018-09-05T00:08:17.714Z,5.43
2018-09-05T00:10:41.585Z,5.47
2018-09-05T00:13:05.802Z,5.37
2018-09-05T00:15:29.655Z,5.20
2018-09-05T00:17:53.607Z,5.33
2018-09-05T00:20:17.437Z,5.30
2018-09-05T00:22:41.359Z,4.57
2018-09-05T00:25:05.219Z,5.20
2018-09-05T00:27:29.096Z,5.47
2018-09-05T00:29:53.051Z,5.23
2018-09-05T00:32:17.099Z,5.37
2018-09-05T00:34:40.982Z,5.10
2018-09-05T00:37:04.958Z,5.30
2018-09-05T00:39:28.859Z,5.37
2018-09-05T00:41:52.751Z,5.50
2018-09-05T00:44:16.650Z,5.43
2018-09-05T00:46:40.527Z,5.73
2018-09-05T00:49:04.435Z,5.87
2018-09-05T00:51:28.336Z,5.57
2018-09-05T00:53:52.268Z,5.43
2018-09-05T00:56:16.194Z,6.03
2018-09-05T00:58:40.102Z,5.70
2018-09-05T01:01:04.018Z,5.43
2018-09-05T01:03:28.914Z,5.90
2018-09-05T01:05:52.929Z,5.03
2018-09-05T01:08:17.011Z,5.50
2018-09-05T01:10:40.878Z,5.93
2018-09-05T01:13:04.733Z,5.60
2018-09-05T01:15:28.629Z,6.00
2018-09-05T01:17:52.538Z,5.50
2018-09-05T01:20:16.412Z,5.77
2018-09-05T01:22:40.319Z,5.43
2018-09-05T01:25:04.216Z,4.93
2018-09-05T01:27:28.133Z,5.83
2018-09-05T01:29:51.999Z,5.83
2018-09-05T01:32:15.876Z,5.60
2018-09-05T01:34:40.378Z,5.57
2018-09-05T01:37:04.262Z,5.47
2018-09-05T01:39:28.151Z,5.60
2018-09-05T01:41:51.988Z,6.03
2018-09-05T01:44:15.908Z,5.37
2018-09-05T01:46:39.794Z,5.90
2018-09-05T01:49:03.672Z,5.90
2018-09-05T01:51:29.879Z,6.00
2018-09-05T01:53:53.808Z,5.97
2018-09-05T01:56:17.686Z,6.53
2018-09-05T01:58:41.596Z,6.00
2018-09-05T02:01:05.437Z,6.83
2018-09-05T02:03:29.324Z,6.57
2018-09-05T02:05:53.198Z,6.30
2018-09-05T02:08:17.142Z,6.70
2018-09-05T02:10:40.963Z,6.50
2018-09-05T02:13:04.911Z,6.23
2018-09-05T02:15:28.766Z,6.70
2018-09-05T02:17:52.886Z,7.40
2018-09-05T02:20:16.739Z,6.73
2018-09-05T02:22:40.618Z,6.83
2018-09-05T02:25:04.495Z,7.07
2018-09-05T02:27:28.361Z,7.37
2018-09-05T02:29:52.351Z,6.57
2018-09-05T02:32:16.197Z,7.60
2018-09-05T02:34:40.080Z,7.47
2018-09-05T02:37:03.940Z,7.60
2018-09-05T02:39:27.819Z,7.67
2018-09-05T02:41:51.689Z,8.47
2018-09-05T02:44:20.264Z,7.90
2018-09-05T02:46:44.137Z,8.23
2018-09-05T02:49:08.023Z,7.73
2018-09-05T02:51:31.920Z,7.83
2018-09-05T02:53:55.814Z,7.10
2018-09-05T02:56:22.602Z,7.13
2018-09-05T02:58:47.194Z,7.03
2018-09-05T03:01:11.464Z,7.03
2018-09-05T03:03:35.341Z,7.43
2018-09-05T03:05:59.292Z,7.57
2018-09-05T03:08:23.300Z,7.80
2018-09-05T03:10:47.185Z,8.33
2018-09-05T03:13:11.039Z,7.03
2018-09-05T03:15:34.934Z,7.70
2018-09-05T03:17:58.808Z,7.20
2018-09-05T03:20:22.762Z,7.17
2018-09-05T03:22:46.752Z,7.17
2018-09-05T03:25:10.629Z,7.57
2018-09-05T03:27:34.492Z,7.97
2018-09-05T03:29:58.376Z,7.83
2018-09-05T03:32:22.519Z,7.40
2018-09-05T03:34:46.110Z,7.23
2018-09-05T03:37:10.025Z,6.70
2018-09-05T03:39:33.851Z,7.03
2018-09-05T03:41:57.756Z,7.43
2018-09-05T03:44:21.643Z,7.90
2018-09-05T03:46:45.497Z,7.27
2018-09-05T03:49:09.390Z,6.63
2018-09-05T03:51:33.259Z,6.20
2018-09-05T03:53:57.142Z,7.13
2018-09-05T03:56:20.989Z,6.77
2018-09-05T03:58:44.850Z,6.60
2018-09-05T04:01:08.729Z,5.97
2018-09-05T04:03:32.581Z,6.70
2018-09-05T04:05:56.465Z,7.00
2018-09-05T04:08:20.347Z,6.87
2018-09-05T04:10:44.231Z,7.10
2018-09-05T04:13:08.123Z,6.87
2018-09-05T04:15:32.000Z,7.37
2018-09-05T04:17:55.827Z,7.43
2018-09-05T04:20:19.792Z,7.90
2018-09-05T04:22:43.659Z,9.03
2018-09-05T04:25:07.546Z,10.37
2018-09-05T04:27:31.499Z,11.47
2018-09-05T04:29:55.377Z,13.60
2018-09-05T04:32:19.205Z,14.33
2018-09-05T04:34:43.058Z,15.33
2018-09-05T04:37:07.031Z,15.43
2018-09-05T04:39:30.927Z,16.20
2018-09-05T04:41:54.803Z,16.43
2018-09-05T04:44:18.695Z,16.23
2018-09-05T04:46:42.582Z,16.60
2018-09-05T04:49:06.476Z,16.40
2018-09-05T04:51:30.620Z,14.57
2018-09-05T04:53:54.517Z,15.10
2018-09-05T04:56:18.433Z,14.87
2018-09-05T04:58:42.318Z,14.57
2018-09-05T05:01:06.321Z,14.17
2018-09-05T05:03:30.210Z,14.23
2018-09-05T05:05:54.088Z,13.13
2018-09-05T05:08:17.976Z,13.00
2018-09-05T05:10:41.979Z,12.37
2018-09-05T05:13:06.066Z,13.37
2018-09-05T05:15:29.959Z,12.77
2018-09-05T05:17:53.849Z,12.87
2018-09-05T05:20:17.741Z,12.60
2018-09-05T05:22:41.605Z,12.37
2018-09-05T05:25:05.584Z,12.80
2018-09-05T05:27:29.475Z,13.17
2018-09-05T05:29:53.380Z,12.73
2018-09-05T05:32:17.297Z,13.30
2018-09-05T05:34:41.348Z,13.43
2018-09-05T05:37:05.466Z,13.23
2018-09-05T05:39:29.531Z,13.87
2018-09-05T05:41:53.435Z,13.40
2018-09-05T05:44:17.357Z,12.37
2018-09-05T05:46:41.270Z,13.13
2018-09-05T05:49:05.215Z,12.33
2018-09-05T05:51:29.108Z,13.20
2018-09-05T05:53:53.016Z,13.47
2018-09-05T05:56:16.852Z,13.17
2018-09-05T05:58:40.919Z,13.67
2018-09-05T06:01:04.928Z,13.63
2018-09-05T06:03:28.757Z,13.73
2018-09-05T06:05:52.698Z,13.00
2018-09-05T06:08:16.526Z,13.67
2018-09-05T06:10:40.446Z,12.97
2018-09-05T06:13:05.110Z,13.07
2018-09-05T06:15:29.304Z,13.60
2018-09-05T06:17:53.251Z,13.23
2018-09-05T06:20:17.110Z,13.07
2018-09-05T06:22:41.010Z,12.83
2018-09-05T06:25:04.900Z,12.83
2018-09-05T06:27:29.092Z,12.67
2018-09-05T06:29:52.984Z,13.07
2018-09-05T06:32:16.870Z,12.43
2018-09-05T06:34:40.752Z,12.23
2018-09-05T06:37:04.626Z,12.37
2018-09-05T06:39:28.558Z,11.83
2018-09-05T06:41:52.433Z,12.57
2018-09-05T06:44:16.332Z,11.93
2018-09-05T06:46:40.248Z,13.07
2018-09-05T06:49:04.143Z,12.70
2018-09-05T06:51:28.120Z,12.93
2018-09-05T06:53:51.991Z,13.27
2018-09-05T06:56:15.836Z,12.67
2018-09-05T06:58:39.716Z,12.97
2018-09-05T07:01:03.597Z,13.20
2018-09-05T07:03:27.495Z,13.10
2018-09-05T07:05:51.362Z,13.37
2018-09-05T07:08:15.277Z,13.43
2018-09-05T07:10:39.207Z,13.53
2018-09-05T07:13:03.060Z,12.33
2018-09-05T07:15:26.934Z,13.40
2018-09-05T07:17:50.780Z,13.27
2018-09-05T07:20:14.774Z,35.97
2018-09-05T07:22:38.678Z,13.67
2018-09-05T07:25:02.547Z,11.83
2018-09-05T07:27:26.469Z,14.07
2018-09-05T07:29:50.337Z,13.30
2018-09-05T07:32:14.251Z,14.47
2018-09-05T07:34:38.316Z,13.50
2018-09-05T07:37:02.213Z,12.37
2018-09-05T07:39:26.152Z,13.40
2018-09-05T07:41:50.022Z,14.57
2018-09-05T07:44:13.859Z,13.03
2018-09-05T07:46:37.784Z,12.73
2018-09-05T07:49:01.666Z,13.73
2018-09-05T07:51:25.576Z,13.83
2018-09-05T07:53:49.455Z,14.03
2018-09-05T07:56:13.312Z,14.17
2018-09-05T07:58:37.206Z,12.53
2018-09-05T08:01:01.084Z,12.83
2018-09-05T08:03:24.966Z,12.90
2018-09-05T08:05:48.819Z,12.70
2018-09-05T08:08:12.704Z,13.30
2018-09-05T08:10:36.610Z,13.53
2018-09-05T08:13:00.464Z,21.93
2018-09-05T08:15:24.370Z,14.27
2018-09-05T08:17:48.312Z,14.37
2018-09-05T08:20:12.148Z,13.23
2018-09-05T08:22:36.046Z,11.53
2018-09-05T08:25:01.229Z,11.30
2018-09-05T08:27:25.085Z,12.50
2018-09-05T08:29:49.065Z,11.03
2018-09-05T08:32:12.942Z,11.07
2018-09-05T08:34:36.888Z,12.03
2018-09-05T08:37:01.111Z,11.60
2018-09-05T08:39:24.684Z,10.50
2018-09-05T08:41:48.593Z,9.97
2018-09-05T08:44:12.732Z,8.93
2018-09-05T08:46:36.408Z,8.63
2018-09-05T08:49:00.303Z,8.93
2018-09-05T08:51:24.176Z,8.60
2018-09-05T08:53:49.178Z,9.33
2018-09-05T08:56:13.169Z,8.73
2018-09-05T08:58:37.022Z,8.63
2018-09-05T09:01:00.938Z,9.27
2018-09-05T09:03:24.863Z,8.60
2018-09-05T09:05:48.748Z,8.87
2018-09-05T09:08:12.896Z,8.93
2018-09-05T09:10:36.778Z,8.37
2018-09-05T09:13:00.686Z,9.17
2018-09-05T09:15:24.565Z,9.30
2018-09-05T09:17:48.485Z,8.50
2018-09-05T09:20:12.392Z,8.63
2018-09-05T09:22:36.274Z,8.23
2018-09-05T09:25:00.137Z,9.43
2018-09-05T09:27:24.059Z,8.57
2018-09-05T09:29:47.923Z,8.37
2018-09-05T09:32:12.028Z,8.07
2018-09-05T09:34:35.911Z,8.17
2018-09-05T09:36:59.788Z,8.47
2018-09-05T09:39:23.732Z,8.33
2018-09-05T09:41:47.591Z,8.23
2018-09-05T09:44:11.927Z,8.20
2018-09-05T09:46:36.264Z,7.70
2018-09-05T09:49:00.133Z,7.60
2018-09-05T09:51:24.447Z,7.90
2018-09-05T09:53:48.319Z,8.23
2018-09-05T09:56:12.223Z,8.53
2018-09-05T09:58:36.386Z,7.60
2018-09-05T10:01:05.496Z,7.27
2018-09-05T10:03:35.079Z,7.07
2018-09-05T10:06:03.986Z,8.10
2018-09-05T10:08:36.662Z,8.00
2018-09-05T10:11:02.593Z,9.00
2018-09-05T10:13:31.735Z,8.17
2018-09-05T10:16:01.048Z,6.53
2018-09-05T10:18:28.151Z,6.73
2018-09-05T10:20:52.097Z,7.23
2018-09-05T10:23:15.967Z,6.40
2018-09-05T10:25:40.269Z,7.33
2018-09-05T10:28:04.317Z,7.30
2018-09-05T10:30:28.152Z,7.30
2018-09-05T10:32:52.056Z,8.20
2018-09-05T10:35:15.929Z,8.80
2018-09-05T10:37:39.844Z,6.80
2018-09-05T10:40:03.800Z,9.47
2018-09-05T10:42:27.691Z,8.00
2018-09-05T10:44:51.672Z,6.20
2018-09-05T10:47:15.589Z,5.50
2018-09-05T10:49:39.464Z,6.20
2018-09-05T10:52:06.570Z,5.97
2018-09-05T10:54:30.465Z,5.37
2018-09-05T10:56:54.371Z,5.87
2018-09-05T10:59:18.304Z,5.40
2018-09-05T11:01:42.248Z,5.83
2018-09-05T11:04:06.568Z,5.50
2018-09-05T11:06:30.486Z,6.00
2018-09-05T11:08:54.490Z,5.73
2018-09-05T11:11:18.598Z,5.37
2018-09-05T11:13:42.501Z,5.70
2018-09-05T11:16:06.412Z,5.50
2018-09-05T11:18:30.330Z,6.07
2018-09-05T11:20:54.186Z,4.70
2018-09-05T11:23:18.072Z,4.67
2018-09-05T11:25:41.946Z,4.53
2018-09-05T11:28:05.831Z,4.70
2018-09-05T11:30:29.718Z,4.80
2018-09-05T11:32:53.633Z,5.10
2018-09-05T11:35:17.538Z,5.00
2018-09-05T11:37:41.443Z,4.90
2018-09-05T11:40:05.389Z,4.40
2018-09-05T11:42:29.325Z,4.00
2018-09-05T11:44:53.240Z,4.50
2018-09-05T11:47:17.106Z,4.47
2018-09-05T11:49:41.046Z,4.20
2018-09-05T11:52:04.934Z,4.17
2018-09-05T11:54:28.975Z,3.90
2018-09-05T11:56:52.852Z,4.50
2018-09-05T11:59:16.882Z,4.00
2018-09-05T12:01:40.899Z,4.10
2018-09-05T12:04:04.795Z,4.57
2018-09-05T12:06:28.662Z,3.77
2018-09-05T12:08:52.554Z,4.23
2018-09-05T12:11:16.438Z,4.00
2018-09-05T12:13:40.614Z,4.60
2018-09-05T12:16:04.492Z,3.90
2018-09-05T12:18:28.382Z,4.50
2018-09-05T12:20:52.320Z,4.03
2018-09-05T12:23:16.201Z,4.03
2018-09-05T12:25:40.125Z,4.43
2018-09-05T12:28:04.006Z,4.00
2018-09-05T12:30:27.871Z,4.10
2018-09-05T12:32:51.768Z,3.72
2018-09-05T12:35:15.700Z,4.17
2018-09-05T12:37:39.583Z,4.08
2018-09-05T12:40:03.531Z,3.42
2018-09-05T12:42:27.386Z,4.00
2018-09-05T12:44:51.318Z,4.10
2018-09-05T12:47:15.154Z,3.80
2018-09-05T12:49:39.024Z,3.87
2018-09-05T12:52:02.926Z,3.92
2018-09-05T12:54:26.795Z,3.72
2018-09-05T12:56:50.681Z,3.40
2018-09-05T12:59:14.635Z,4.12
2018-09-05T13:01:38.502Z,3.72
2018-09-05T13:04:04.152Z,3.90
2018-09-05T13:06:28.019Z,3.80
2018-09-05T13:08:51.902Z,3.90
2018-09-05T13:11:15.841Z,3.98
2018-09-05T13:13:39.685Z,5.50
2018-09-05T13:16:03.803Z,3.47
2018-09-05T13:18:27.732Z,7.40
2018-09-05T13:20:51.617Z,4.03
2018-09-05T13:23:15.490Z,3.70
2018-09-05T13:25:39.456Z,4.03
2018-09-05T13:28:03.321Z,3.80
2018-09-05T13:30:27.223Z,4.20
2018-09-05T13:32:51.210Z,4.00
2018-09-05T13:35:15.129Z,3.90
2018-09-05T13:37:38.973Z,3.95
2018-09-05T13:40:02.924Z,3.85
2018-09-05T13:42:26.835Z,3.60
2018-09-05T13:44:50.725Z,3.77
2018-09-05T13:47:14.615Z,3.87
2018-09-05T13:49:38.647Z,4.08
2018-09-05T13:52:04.733Z,3.80
2018-09-05T13:54:28.642Z,3.80
2018-09-05T13:56:52.590Z,3.95
2018-09-05T13:59:16.457Z,4.12
2018-09-05T14:01:40.441Z,4.15
2018-09-05T14:04:04.305Z,4.10
2018-09-05T14:06:28.169Z,3.58
2018-09-05T14:08:52.093Z,3.83
2018-09-05T14:11:16.002Z,4.42
2018-09-05T14:13:40.260Z,3.98
2018-09-05T14:16:04.195Z,4.28
2018-09-05T14:18:28.100Z,4.10
2018-09-05T14:20:52.102Z,4.12
2018-09-05T14:23:15.982Z,4.25
2018-09-05T14:25:39.820Z,3.92
2018-09-05T14:28:03.711Z,4.25
2018-09-05T14:30:27.608Z,3.92
2018-09-05T14:32:51.611Z,4.30
2018-09-05T14:35:15.500Z,4.10
2018-09-05T14:37:39.391Z,4.35
2018-09-05T14:40:03.376Z,4.22
2018-09-05T14:42:27.294Z,4.20
2018-09-05T14:44:51.323Z,4.25
2018-09-05T14:47:15.228Z,4.15
2018-09-05T14:49:39.123Z,4.45
2018-09-05T14:52:03.076Z,4.45
2018-09-05T14:54:27.060Z,4.92
2018-09-05T14:56:50.958Z,5.00
2018-09-05T14:59:14.841Z,4.85
2018-09-05T15:01:38.864Z,4.95
2018-09-05T15:04:02.794Z,4.90
2018-09-05T15:06:26.664Z,4.85
2018-09-05T15:08:50.760Z,5.22
2018-09-05T15:11:14.638Z,4.83
2018-09-05T15:13:38.676Z,4.45
2018-09-05T15:16:02.553Z,4.40
2018-09-05T15:18:26.446Z,4.60
2018-09-05T15:20:50.484Z,5.60
2018-09-05T15:23:14.424Z,5.40
2018-09-05T15:25:38.418Z,5.03
2018-09-05T15:28:02.336Z,4.97
2018-09-05T15:30:26.338Z,5.22
2018-09-05T15:32:50.344Z,5.20
2018-09-05T15:35:14.236Z,5.22
2018-09-05T15:37:38.084Z,5.30
2018-09-05T15:40:02.213Z,5.20
2018-09-05T15:42:26.152Z,5.00
2018-09-05T15:44:50.139Z,4.83
2018-09-05T15:47:14.064Z,4.78
2018-09-05T15:49:37.947Z,5.03
2018-09-05T15:52:01.932Z,5.28
2018-09-05T15:54:27.321Z,5.37
2018-09-05T15:56:51.592Z,4.83
2018-09-05T15:59:15.525Z,5.22
2018-09-05T16:01:39.408Z,5.08
2018-09-05T16:04:03.342Z,5.05
2018-09-05T16:06:27.302Z,5.35
2018-09-05T16:08:51.187Z,5.25
2018-09-05T16:11:15.110Z,5.30
2018-09-05T16:13:39.044Z,4.92
2018-09-05T16:16:03.240Z,4.75
2018-09-05T16:18:27.160Z,4.75
2018-09-05T16:20:51.100Z,4.28
2018-09-05T16:23:15.011Z,4.92
2018-09-05T16:25:38.978Z,4.53
2018-09-05T16:28:02.904Z,4.78
2018-09-05T16:30:26.913Z,4.65
2018-09-05T16:32:50.830Z,4.72
2018-09-05T16:35:14.737Z,4.42
2018-09-05T16:37:38.683Z,5.00
2018-09-05T16:40:02.669Z,4.45
2018-09-05T16:42:26.616Z,4.35
2018-09-05T16:44:50.507Z,4.95
2018-09-05T16:47:14.448Z,5.50
2018-09-05T16:49:38.392Z,5.17
2018-09-05T16:52:02.302Z,4.40
2018-09-05T16:54:26.190Z,4.72
2018-09-05T16:56:50.152Z,4.78
2018-09-05T16:59:14.112Z,4.58
2018-09-05T17:01:38.024Z,4.60
2018-09-05T17:04:01.932Z,4.45
2018-09-05T17:06:25.888Z,5.45
2018-09-05T17:08:49.817Z,5.53
2018-09-05T17:11:13.832Z,5.37
2018-09-05T17:13:37.692Z,5.78
2018-09-05T17:16:01.573Z,4.78
2018-09-05T17:18:25.527Z,4.70
2018-09-05T17:20:49.463Z,6.05
2018-09-05T17:23:13.776Z,6.87
2018-09-05T17:25:37.780Z,5.03
2018-09-05T17:28:01.760Z,4.83
2018-09-05T17:30:25.670Z,4.95
2018-09-05T17:32:49.577Z,4.92
2018-09-05T17:35:13.546Z,4.58
2018-09-05T17:37:37.537Z,4.80
2018-09-05T17:40:01.485Z,4.35
2018-09-05T17:42:25.423Z,4.60
2018-09-05T17:44:49.401Z,4.25
2018-09-05T17:47:13.316Z,4.57
2018-09-05T17:49:37.385Z,4.67
2018-09-05T17:52:01.326Z,4.17
2018-09-05T17:54:25.228Z,4.90
2018-09-05T17:56:49.254Z,4.20
2018-09-05T17:59:13.254Z,4.23
2018-09-05T18:01:37.236Z,4.30
2018-09-05T18:04:01.661Z,4.57
2018-09-05T18:06:25.569Z,4.47
2018-09-05T18:08:49.508Z,4.60
2018-09-05T18:11:14.027Z,4.30
2018-09-05T18:13:37.973Z,4.57
2018-09-05T18:16:01.945Z,4.37
2018-09-05T18:18:25.874Z,4.17
2018-09-05T18:20:49.766Z,4.27
2018-09-05T18:23:13.714Z,4.73
2018-09-05T18:25:37.627Z,4.60
2018-09-05T18:28:01.519Z,5.20
2018-09-05T18:30:25.599Z,4.40
2018-09-05T18:32:49.559Z,4.57
2018-09-05T18:35:13.506Z,4.27
2018-09-05T18:37:37.427Z,5.37
2018-09-05T18:40:01.391Z,5.00
2018-09-05T18:42:25.383Z,5.57
2018-09-05T18:44:49.328Z,6.87
2018-09-05T18:47:13.276Z,6.50
2018-09-05T18:49:37.226Z,9.00
2018-09-05T18:52:01.250Z,9.13
2018-09-05T18:54:25.899Z,5.63
2018-09-05T18:56:50.103Z,4.50
2018-09-05T18:59:14.099Z,4.60
2018-09-05T19:01:38.034Z,4.43
2018-09-05T19:04:03.455Z,4.37
2018-09-05T19:06:27.364Z,4.33
2018-09-05T19:08:51.327Z,7.27
2018-09-05T19:11:15.315Z,4.77
2018-09-05T19:13:40.090Z,4.30
2018-09-05T19:16:04.009Z,4.60
2018-09-05T19:18:28.112Z,4.83
2018-09-05T19:20:52.038Z,4.60
2018-09-05T19:23:15.968Z,5.00
2018-09-05T19:25:39.911Z,7.17
2018-09-05T19:28:03.789Z,5.00
2018-09-05T19:30:27.984Z,4.87
2018-09-05T19:32:52.543Z,4.50
2018-09-05T19:35:16.532Z,4.90
2018-09-05T19:37:40.451Z,4.70
2018-09-05T19:40:04.436Z,4.37
2018-09-05T19:42:28.592Z,4.37
2018-09-05T19:44:52.487Z,4.73
2018-09-05T19:47:16.483Z,4.27
2018-09-05T19:49:40.426Z,4.83
2018-09-05T19:52:04.365Z,4.00
2018-09-05T19:54:28.397Z,4.73
2018-09-05T19:56:52.434Z,4.30
2018-09-05T19:59:16.415Z,4.50
2018-09-05T20:01:40.425Z,5.17
2018-09-05T20:04:04.851Z,5.43
2018-09-05T20:06:28.892Z,5.03
2018-09-05T20:08:52.793Z,4.90
2018-09-05T20:11:16.740Z,4.63
2018-09-05T20:13:40.678Z,4.70
2018-09-05T20:16:04.642Z,5.03
2018-09-05T20:18:28.673Z,5.10
2018-09-05T20:20:52.613Z,5.03
2018-09-05T20:23:16.514Z,4.93
2018-09-05T20:25:40.545Z,4.40
2018-09-05T20:28:04.492Z,5.80
2018-09-05T20:30:28.427Z,5.20
2018-09-05T20:32:52.480Z,5.37
2018-09-05T20:35:16.394Z,4.90
2018-09-05T20:37:40.305Z,4.57
2018-09-05T20:40:04.482Z,5.33
2018-09-05T20:42:28.374Z,5.53
2018-09-05T20:44:52.292Z,6.10
2018-09-05T20:47:16.242Z,5.27
2018-09-05T20:49:40.157Z,5.30
2018-09-05T20:52:04.114Z,5.00
2018-09-05T20:54:28.026Z,4.83
2018-09-05T20:56:52.032Z,5.30
2018-09-05T20:59:15.980Z,5.03
2018-09-05T21:01:39.855Z,4.60
2018-09-05T21:04:03.758Z,5.23
2018-09-05T21:06:27.648Z,4.97
2018-09-05T21:08:51.696Z,5.57
2018-09-05T21:11:15.590Z,5.13
2018-09-05T21:13:39.490Z,5.40
2018-09-05T21:16:03.404Z,5.00
2018-09-05T21:18:27.279Z,4.97
2018-09-05T21:20:51.266Z,4.83
2018-09-05T21:23:15.158Z,5.13
2018-09-05T21:25:39.100Z,5.07
2018-09-05T21:28:03.129Z,4.97
2018-09-05T21:32:42.690Z,5.77
2018-09-05T21:35:06.720Z,4.73
2018-09-05T21:37:30.772Z,6.07
2018-09-05T21:39:54.659Z,5.37
2018-09-05T21:42:18.603Z,4.63
2018-09-05T21:44:42.504Z,5.13
2018-09-05T21:47:06.385Z,5.10
2018-09-05T21:49:30.410Z,4.67
2018-09-05T21:51:54.484Z,5.00
2018-09-05T21:54:18.390Z,4.60
2018-09-05T21:56:42.340Z,4.80
2018-09-05T21:59:06.269Z,4.97
2018-09-05T22:01:30.543Z,4.83
2018-09-05T22:03:54.547Z,5.00
2018-09-05T22:06:18.468Z,4.73
2018-09-05T22:08:42.388Z,5.00
2018-09-05T22:11:11.625Z,4.73
2018-09-05T22:13:35.553Z,5.30
2018-09-05T22:15:59.430Z,4.70
2018-09-05T22:18:23.334Z,4.97
2018-09-05T22:20:47.204Z,4.83
2018-09-05T22:23:11.172Z,5.03
2018-09-05T22:25:35.106Z,4.80
2018-09-05T22:27:59.013Z,4.77
2018-09-05T22:30:22.977Z,5.10
2018-09-05T22:32:46.903Z,5.27
2018-09-05T22:35:10.758Z,4.57
2018-09-05T22:37:34.676Z,4.70
2018-09-05T22:39:58.647Z,5.10
2018-09-05T22:42:22.554Z,5.23
2018-09-05T22:44:57.652Z,5.10
2018-09-05T22:47:32.911Z,4.90
2018-09-05T22:50:34.808Z,5.20
2018-09-05T22:53:27.278Z,4.80
2018-09-05T22:56:07.251Z,4.60
2018-09-05T23:00:45.022Z,5.47
2018-09-05T23:03:23.675Z,5.23
2018-09-05T23:08:05.483Z,5.10
2018-09-05T23:10:40.513Z,5.50
2018-09-05T23:13:15.764Z,5.63
2018-09-05T23:15:50.867Z,5.30
2018-09-05T23:18:25.797Z,4.83
2018-09-05T23:21:25.442Z,5.00
2018-09-05T23:24:02.951Z,5.33
2018-09-05T23:26:27.089Z,5.00
2018-09-05T23:28:50.999Z,5.20
2018-09-05T23:31:14.879Z,5.27
2018-09-05T23:33:38.769Z,5.73
2018-09-05T23:36:02.702Z,4.90
2018-09-05T23:38:26.772Z,5.50
2018-09-05T23:40:50.637Z,5.67
2018-09-05T23:43:14.560Z,5.53
2018-09-05T23:45:38.570Z,4.83
2018-09-05T23:48:02.441Z,5.30
2018-09-05T23:50:26.291Z,5.20
2018-09-05T23:52:50.718Z,4.70
2018-09-05T23:55:14.615Z,5.53
2018-09-05T23:57:38.488Z,5.30
